Time;durP1;ratioP1;P1;durP2;ratioP2;P2;SDS_P1;SDS_P2;PMS_P1;PMS_P2;Temp;Humidity;BMP_temperature;BMP_pressure;BME280_temperature;BME280_humidity;BME280_pressure;Samples;Min_cycle;Max_cycle;Signal;HPM_P1;HPM_P2
2021/12/31 00:01:21;;;;;;;3.80;2.53;;;12.80;99.90;;;;;;4992966;28;20467;-75
2021/12/31 00:03:48;;;;;;;3.40;2.17;;;12.80;99.90;;;;;;5002883;28;20588;-75
2021/12/31 00:06:15;;;;;;;3.03;2.47;;;12.80;99.90;;;;;;4993307;28;20817;-75
2021/12/31 00:08:42;;;;;;;7.73;2.60;;;12.80;99.90;;;;;;4997713;28;20925;-75
2021/12/31 00:11:09;;;;;;;4.40;2.60;;;12.70;99.90;;;;;;5025256;22;20533;-77
2021/12/31 00:13:35;;;;;;;6.23;2.87;;;12.70;99.90;;;;;;5019360;28;20929;-77
2021/12/31 00:16:04;;;;;;;5.77;3.37;;;12.70;99.90;;;;;;5020141;28;20450;-77
2021/12/31 00:18:31;;;;;;;6.43;2.80;;;12.70;99.90;;;;;;5018354;28;20421;-77
2021/12/31 00:20:57;;;;;;;11.20;2.80;;;12.70;99.90;;;;;;5017451;28;20445;-77
2021/12/31 00:23:26;;;;;;;4.40;2.40;;;12.70;99.90;;;;;;5018568;28;21022;-76
2021/12/31 00:25:53;;;;;;;5.93;2.67;;;12.70;99.90;;;;;;5018342;28;20450;-77
2021/12/31 00:28:20;;;;;;;6.30;2.60;;;12.70;99.90;;;;;;5018839;28;20450;-76
2021/12/31 00:30:51;;;;;;;2.53;2.33;;;12.70;99.90;;;;;;5017958;28;20461;-77
2021/12/31 00:33:20;;;;;;;6.80;3.03;;;12.70;99.90;;;;;;5019006;28;20454;-77
2021/12/31 00:35:46;;;;;;;3.70;2.30;;;12.70;99.90;;;;;;5019144;28;20458;-78
2021/12/31 00:38:13;;;;;;;5.23;2.33;;;12.70;99.90;;;;;;5018649;28;20533;-77
2021/12/31 00:40:40;;;;;;;2.60;2.37;;;12.70;99.90;;;;;;5017723;28;20450;-77
2021/12/31 00:43:10;;;;;;;3.23;2.40;;;12.60;99.90;;;;;;5017604;28;20533;-77
2021/12/31 00:45:39;;;;;;;4.73;2.60;;;12.70;99.90;;;;;;5017416;28;20450;-77
2021/12/31 00:48:06;;;;;;;6.53;2.50;;;12.70;99.90;;;;;;5017329;28;21026;-77
2021/12/31 00:50:34;;;;;;;3.00;2.60;;;12.70;99.90;;;;;;5018218;28;20906;-77
2021/12/31 00:53:01;;;;;;;5.67;2.63;;;12.70;99.90;;;;;;5017633;28;20446;-77
2021/12/31 00:55:28;;;;;;;7.17;2.43;;;12.60;99.90;;;;;;5017895;28;20961;-77
2021/12/31 00:57:54;;;;;;;6.43;2.90;;;12.60;99.90;;;;;;5017380;28;20460;-76
2021/12/31 01:00:22;;;;;;;8.70;3.07;;;12.60;99.90;;;;;;5017673;28;20424;-77
2021/12/31 01:02:49;;;;;;;8.23;2.80;;;12.50;99.90;;;;;;5006062;28;20537;-76
2021/12/31 01:05:16;;;;;;;6.00;2.80;;;12.50;99.90;;;;;;5017292;28;20507;-77
2021/12/31 01:07:45;;;;;;;4.03;2.63;;;12.50;99.90;;;;;;5016380;28;20439;-77
2021/12/31 01:10:14;;;;;;;6.83;2.67;;;12.50;99.90;;;;;;5015748;28;20450;-77
2021/12/31 01:12:42;;;;;;;4.13;2.60;;;12.50;99.90;;;;;;5016094;28;20541;-77
2021/12/31 01:15:12;;;;;;;4.93;2.90;;;12.50;99.90;;;;;;5017256;28;20469;-76
2021/12/31 01:20:34;;;;;;;4.93;2.67;;;12.50;99.90;;;;;;4959570;28;21903;-77
2021/12/31 01:23:02;;;;;;;4.93;2.63;;;12.40;99.90;;;;;;4990581;28;20479;-77
2021/12/31 01:25:29;;;;;;;10.43;3.20;;;12.40;99.90;;;;;;5017264;28;20529;-77
2021/12/31 01:27:56;;;;;;;4.50;2.80;;;12.40;99.90;;;;;;5015044;28;20454;-77
2021/12/31 01:30:23;;;;;;;3.20;2.90;;;12.50;99.90;;;;;;5014688;28;20446;-77
2021/12/31 01:32:50;;;;;;;4.03;2.73;;;12.50;99.90;;;;;;5015339;28;20478;-77
2021/12/31 01:35:16;;;;;;;5.33;2.53;;;12.50;99.90;;;;;;5015327;28;20459;-77
2021/12/31 01:37:43;;;;;;;11.60;2.73;;;12.50;99.90;;;;;;5005023;28;20884;-77
2021/12/31 01:40:13;;;;;;;3.63;2.80;;;12.50;99.90;;;;;;5000085;28;20514;-77
2021/12/31 01:42:39;;;;;;;8.70;3.07;;;12.50;99.90;;;;;;4998874;28;20990;-78
2021/12/31 01:45:10;;;;;;;9.03;2.53;;;12.50;99.90;;;;;;4998838;28;20451;-78
2021/12/31 01:47:54;;;;;;;5.17;2.77;;;12.50;99.90;;;;;;5013051;28;20458;-77
2021/12/31 01:50:22;;;;;;;11.80;3.00;;;12.50;99.90;;;;;;5017158;28;20458;-77
2021/12/31 01:52:48;;;;;;;6.10;3.23;;;12.50;99.90;;;;;;5015952;28;20463;-76
2021/12/31 01:55:17;;;;;;;5.03;2.87;;;12.50;99.90;;;;;;5015633;28;20455;-76
2021/12/31 01:57:44;;;;;;;4.70;3.17;;;12.50;99.90;;;;;;5003603;28;20986;-77
2021/12/31 02:00:12;;;;;;;5.53;3.03;;;12.50;99.90;;;;;;5012686;28;20939;-77
2021/12/31 02:02:42;;;;;;;4.07;2.60;;;12.50;99.90;;;;;;5018318;28;20445;-76
2021/12/31 02:05:10;;;;;;;4.20;3.20;;;12.50;99.90;;;;;;5018221;28;20452;-77
2021/12/31 02:07:37;;;;;;;3.20;2.60;;;12.50;99.90;;;;;;5018545;28;20858;-77
2021/12/31 02:10:05;;;;;;;6.30;2.70;;;12.50;99.90;;;;;;5018958;28;20446;-76
2021/12/31 02:12:33;;;;;;;5.13;3.17;;;12.40;99.90;;;;;;5017336;28;20537;-76
2021/12/31 02:15:00;;;;;;;6.63;2.80;;;12.40;99.90;;;;;;5018141;28;20474;-76
2021/12/31 02:17:27;;;;;;;4.07;3.00;;;12.40;99.90;;;;;;5016877;28;20524;-77
2021/12/31 02:19:59;;;;;;;7.07;2.87;;;12.40;99.90;;;;;;5018294;28;20853;-76
2021/12/31 02:22:28;;;;;;;6.27;2.87;;;12.40;99.90;;;;;;5017229;28;20970;-77
2021/12/31 02:24:55;;;;;;;5.47;3.00;;;12.40;99.90;;;;;;4997812;28;20578;-77
2021/12/31 02:27:22;;;;;;;5.07;2.77;;;12.30;99.90;;;;;;5016342;28;20457;-76
2021/12/31 02:29:49;;;;;;;5.93;2.80;;;12.30;99.90;;;;;;5016695;28;20447;-76
2021/12/31 02:32:16;;;;;;;6.97;3.07;;;12.30;99.90;;;;;;5016470;28;20532;-77
2021/12/31 02:34:43;;;;;;;2.87;2.33;;;12.30;99.90;;;;;;5016929;28;20459;-77
2021/12/31 02:37:11;;;;;;;4.60;2.77;;;12.30;99.90;;;;;;5016514;28;20795;-77
2021/12/31 02:39:40;;;;;;;3.70;2.63;;;12.30;99.90;;;;;;5017346;28;20867;-77
2021/12/31 02:42:08;;;;;;;7.20;3.07;;;12.40;99.90;;;;;;5017685;28;20481;-77
2021/12/31 02:44:35;;;;;;;5.80;2.60;;;12.30;99.90;;;;;;5017356;28;20478;-77
2021/12/31 02:47:04;;;;;;;3.90;2.60;;;12.30;99.90;;;;;;5015990;28;20455;-77
2021/12/31 02:49:35;;;;;;;5.30;2.67;;;12.30;99.90;;;;;;5015989;28;20498;-77
2021/12/31 02:52:03;;;;;;;6.00;2.80;;;12.30;99.90;;;;;;5016530;28;20479;-76
2021/12/31 02:54:31;;;;;;;3.40;2.63;;;12.30;99.90;;;;;;5016257;28;20493;-76
2021/12/31 02:56:59;;;;;;;4.33;2.40;;;12.30;99.90;;;;;;5002158;28;20498;-77
2021/12/31 02:59:25;;;;;;;4.20;2.60;;;12.30;99.90;;;;;;4997722;28;21049;-76
2021/12/31 03:01:53;;;;;;;3.17;2.20;;;12.40;99.90;;;;;;4997949;28;20499;-76
2021/12/31 03:04:24;;;;;;;5.70;2.80;;;12.40;99.90;;;;;;5008047;28;20858;-76
2021/12/31 03:06:53;;;;;;;6.10;2.60;;;12.40;99.90;;;;;;5017430;28;20985;-77
2021/12/31 03:09:23;;;;;;;11.63;2.57;;;12.40;99.90;;;;;;5021945;28;20504;-77
2021/12/31 03:11:55;;;;;;;3.70;3.00;;;12.40;99.90;;;;;;5019075;28;20486;-77
2021/12/31 03:14:23;;;;;;;7.47;2.63;;;12.40;99.90;;;;;;5020215;28;20443;-77
2021/12/31 03:16:50;;;;;;;6.27;2.90;;;12.30;99.90;;;;;;5019783;28;20462;-77
2021/12/31 03:19:20;;;;;;;4.33;2.60;;;12.30;99.90;;;;;;5018577;28;20538;-77
2021/12/31 03:21:46;;;;;;;6.57;2.60;;;12.30;99.90;;;;;;5016884;28;20444;-77
2021/12/31 03:24:13;;;;;;;11.80;2.73;;;12.40;99.90;;;;;;5016944;28;20572;-76
2021/12/31 03:26:40;;;;;;;6.60;3.17;;;12.40;99.90;;;;;;5016360;28;20486;-76
2021/12/31 03:29:08;;;;;;;5.90;3.00;;;12.40;99.90;;;;;;5015756;28;20952;-76
2021/12/31 03:31:35;;;;;;;6.00;2.20;;;12.40;99.90;;;;;;5013071;28;20895;-76
2021/12/31 03:34:01;;;;;;;10.60;2.50;;;12.40;99.90;;;;;;5014921;28;20442;-76
2021/12/31 03:36:28;;;;;;;5.33;2.60;;;12.40;99.90;;;;;;5016480;28;20489;-76
2021/12/31 03:38:55;;;;;;;7.30;2.90;;;12.40;99.90;;;;;;5020226;28;20462;-77
2021/12/31 03:41:21;;;;;;;7.13;2.60;;;12.30;99.90;;;;;;5021909;28;20497;-77
2021/12/31 03:43:48;;;;;;;3.47;2.60;;;12.40;99.90;;;;;;5023730;28;20493;-77
2021/12/31 03:46:16;;;;;;;7.87;2.60;;;12.30;99.90;;;;;;5021907;28;20450;-76
2021/12/31 03:48:43;;;;;;;3.40;2.60;;;12.30;99.90;;;;;;5024147;28;20454;-77
2021/12/31 03:51:09;;;;;;;3.50;2.40;;;12.30;99.90;;;;;;5020170;28;20490;-76
2021/12/31 03:53:36;;;;;;;11.97;3.00;;;12.30;99.90;;;;;;5019914;28;20856;-76
2021/12/31 03:56:03;;;;;;;16.93;4.43;;;12.30;99.90;;;;;;5018876;28;20450;-77
2021/12/31 03:58:30;;;;;;;3.10;2.50;;;12.20;99.90;;;;;;5001301;28;20451;-77
2021/12/31 04:00:56;;;;;;;4.13;2.20;;;12.10;99.90;;;;;;5007166;28;20486;-76
2021/12/31 04:03:24;;;;;;;3.60;2.60;;;12.10;99.90;;;;;;5005988;28;20540;-76
2021/12/31 04:05:51;;;;;;;5.57;2.57;;;12.10;99.90;;;;;;5018830;28;20454;-77
2021/12/31 04:08:18;;;;;;;6.00;2.57;;;12.10;99.90;;;;;;5018626;28;20462;-76
2021/12/31 04:10:44;;;;;;;5.50;2.30;;;12.00;99.90;;;;;;5017537;28;20510;-76
2021/12/31 04:13:11;;;;;;;5.30;2.60;;;12.00;99.90;;;;;;5018653;28;20454;-77
2021/12/31 04:15:38;;;;;;;4.57;2.50;;;12.00;99.90;;;;;;5018307;28;20454;-77
2021/12/31 04:18:04;;;;;;;3.40;2.63;;;12.00;99.90;;;;;;5018889;28;20459;-76
2021/12/31 04:20:36;;;;;;;7.00;2.80;;;12.00;99.90;;;;;;5018956;28;20457;-76
2021/12/31 04:23:07;;;;;;;7.73;3.30;;;11.90;99.90;;;;;;5019927;28;20974;-76
2021/12/31 04:25:33;;;;;;;3.40;2.60;;;11.90;99.90;;;;;;5018386;28;20938;-76
2021/12/31 04:28:00;;;;;;;7.63;2.57;;;11.90;99.90;;;;;;5019022;28;20860;-76
2021/12/31 04:30:27;;;;;;;3.93;2.70;;;11.80;99.90;;;;;;5019161;28;20981;-77
2021/12/31 04:32:53;;;;;;;7.43;3.20;;;11.80;99.90;;;;;;5019570;28;20536;-76
2021/12/31 04:35:20;;;;;;;3.03;2.30;;;11.80;99.90;;;;;;5019808;28;20454;-76
2021/12/31 04:37:48;;;;;;;4.23;2.40;;;11.80;99.90;;;;;;5020022;28;20462;-77
2021/12/31 04:40:15;;;;;;;4.43;2.40;;;11.80;99.90;;;;;;5020040;28;20458;-77
2021/12/31 04:42:42;;;;;;;8.60;2.77;;;11.70;99.90;;;;;;5018286;28;20470;-77
2021/12/31 04:45:10;;;;;;;10.67;4.10;;;11.70;99.90;;;;;;5018708;28;20597;-76
2021/12/31 04:47:37;;;;;;;4.90;2.37;;;11.70;99.90;;;;;;5014605;28;20481;-76
2021/12/31 04:50:05;;;;;;;6.17;2.47;;;11.70;99.90;;;;;;5012529;28;20512;-76
2021/12/31 04:52:32;;;;;;;6.33;2.80;;;11.70;99.90;;;;;;5012489;28;20474;-76
2021/12/31 04:55:00;;;;;;;6.80;2.23;;;11.70;99.90;;;;;;5013142;28;20454;-75
2021/12/31 04:57:27;;;;;;;4.03;2.40;;;11.70;99.90;;;;;;5002959;28;20458;-76
2021/12/31 04:59:54;;;;;;;5.73;2.50;;;11.70;99.90;;;;;;4994629;28;20526;-76
2021/12/31 05:02:21;;;;;;;4.50;2.97;;;11.70;99.90;;;;;;5007374;28;20849;-76
2021/12/31 05:04:47;;;;;;;2.97;2.77;;;11.60;99.90;;;;;;5010542;28;20834;-76
2021/12/31 05:07:14;;;;;;;3.80;2.70;;;11.60;99.90;;;;;;5012406;28;20771;-76
2021/12/31 05:09:41;;;;;;;2.77;2.47;;;11.60;99.90;;;;;;5012398;28;20451;-77
2021/12/31 05:12:14;;;;;;;3.83;3.47;;;11.50;99.90;;;;;;5011886;28;20478;-76
2021/12/31 05:14:41;;;;;;;3.77;2.57;;;11.50;99.90;;;;;;5011599;28;20450;-76
2021/12/31 05:17:08;;;;;;;7.37;2.60;;;11.50;99.90;;;;;;5011583;28;20946;-76
2021/12/31 05:19:35;;;;;;;2.70;2.47;;;11.50;99.90;;;;;;5012749;28;20454;-75
2021/12/31 05:22:01;;;;;;;4.10;2.20;;;11.50;99.90;;;;;;5012514;28;20525;-76
2021/12/31 05:24:28;;;;;;;3.73;2.17;;;11.50;99.90;;;;;;5012219;28;20555;-76
2021/12/31 05:26:54;;;;;;;4.30;2.37;;;11.50;99.90;;;;;;5017801;28;20889;-76
2021/12/31 05:29:22;;;;;;;4.07;2.67;;;11.50;99.90;;;;;;5018928;28;20905;-77
2021/12/31 05:31:49;;;;;;;3.20;2.23;;;11.50;99.90;;;;;;5017936;28;20879;-77
2021/12/31 05:34:16;;;;;;;9.43;2.57;;;11.50;99.90;;;;;;5019591;28;20512;-76
2021/12/31 05:36:42;;;;;;;6.23;2.60;;;11.50;99.90;;;;;;5019601;28;20454;-76
2021/12/31 05:39:10;;;;;;;2.50;2.30;;;11.50;99.90;;;;;;5018640;28;20454;-76
2021/12/31 05:41:39;;;;;;;2.90;2.20;;;11.50;99.90;;;;;;5018339;28;20552;-77
2021/12/31 05:44:06;;;;;;;2.90;2.33;;;11.50;99.90;;;;;;5018767;28;20490;-76
2021/12/31 05:46:34;;;;;;;3.03;2.40;;;11.50;99.90;;;;;;5017077;28;20465;-77
2021/12/31 05:49:01;;;;;;;3.73;2.20;;;11.50;99.90;;;;;;5015997;28;20454;-76
2021/12/31 05:51:28;;;;;;;3.47;2.70;;;11.60;99.90;;;;;;5015826;28;20978;-76
2021/12/31 05:53:55;;;;;;;3.03;2.40;;;11.60;99.90;;;;;;5015347;28;20462;-77
2021/12/31 05:56:21;;;;;;;3.53;2.20;;;11.50;99.90;;;;;;5014852;28;20447;-76
2021/12/31 05:58:48;;;;;;;2.73;2.30;;;11.50;99.90;;;;;;5016436;28;20800;-76
2021/12/31 06:01:15;;;;;;;2.77;2.43;;;11.60;99.90;;;;;;5016663;28;20831;-77
2021/12/31 06:03:43;;;;;;;8.20;2.70;;;11.50;99.90;;;;;;5006904;28;20458;-76
2021/12/31 06:06:09;;;;;;;6.00;2.23;;;11.50;99.90;;;;;;4996559;28;20454;-77
2021/12/31 06:08:36;;;;;;;5.50;2.73;;;11.50;99.90;;;;;;5007664;28;20454;-76
2021/12/31 06:13:31;;;;;;;2.73;2.53;;;11.50;99.90;;;;;;5009596;28;20502;-69
2021/12/31 06:15:58;;;;;;;4.20;2.50;;;11.40;99.90;;;;;;5009611;28;20525;-69
2021/12/31 06:18:26;;;;;;;6.07;2.30;;;11.40;99.90;;;;;;5011533;28;20497;-69
2021/12/31 06:20:54;;;;;;;4.13;2.50;;;11.40;99.90;;;;;;5009087;28;20446;-69
2021/12/31 06:23:20;;;;;;;5.17;2.80;;;11.30;99.90;;;;;;4988021;28;20505;-68
2021/12/31 06:25:47;;;;;;;4.57;2.53;;;11.20;99.90;;;;;;4976442;28;21188;-69
2021/12/31 06:28:14;;;;;;;4.00;3.03;;;11.10;99.90;;;;;;4972022;28;20464;-68
2021/12/31 06:30:40;;;;;;;3.13;2.80;;;11.00;99.90;;;;;;4973275;28;20460;-68
2021/12/31 06:33:07;;;;;;;5.03;2.90;;;10.90;99.90;;;;;;4982191;28;20549;-68
2021/12/31 06:35:34;;;;;;;3.80;2.83;;;10.90;99.90;;;;;;4973548;28;20542;-68
2021/12/31 06:38:03;;;;;;;5.43;3.00;;;10.80;99.90;;;;;;4973133;28;20449;-69
2021/12/31 06:40:31;;;;;;;5.03;3.43;;;10.70;99.90;;;;;;4974454;28;20456;-68
2021/12/31 06:42:58;;;;;;;4.10;3.40;;;10.60;99.90;;;;;;4974020;28;20483;-68
2021/12/31 06:45:24;;;;;;;8.53;3.93;;;10.50;99.90;;;;;;4973689;28;20491;-69
2021/12/31 06:47:51;;;;;;;3.80;3.37;;;10.50;99.90;;;;;;4972953;28;20459;-69
2021/12/31 06:50:18;;;;;;;3.93;3.20;;;10.40;99.90;;;;;;4975147;28;20872;-69
2021/12/31 06:52:46;;;;;;;10.23;3.07;;;10.40;99.90;;;;;;4973832;28;20476;-68
2021/12/31 06:55:14;;;;;;;7.17;3.50;;;10.30;99.90;;;;;;4971597;28;20817;-68
2021/12/31 06:57:41;;;;;;;9.57;4.17;;;10.30;99.90;;;;;;4986441;28;20451;-68
2021/12/31 07:00:09;;;;;;;3.63;3.33;;;10.30;99.90;;;;;;4986659;28;20459;-68
2021/12/31 07:02:35;;;;;;;6.90;4.17;;;10.20;99.90;;;;;;4987430;28;20578;-68
2021/12/31 07:05:02;;;;;;;14.43;4.00;;;10.20;99.90;;;;;;4971925;28;20483;-71
2021/12/31 07:07:29;;;;;;;7.77;4.50;;;10.20;99.90;;;;;;4974379;28;20459;-69
2021/12/31 07:09:55;;;;;;;4.73;3.33;;;10.30;99.90;;;;;;4972711;28;20451;-69
2021/12/31 07:12:23;;;;;;;5.87;3.50;;;10.30;99.90;;;;;;4972731;28;20542;-69
2021/12/31 07:14:50;;;;;;;9.93;3.60;;;10.30;99.90;;;;;;4976410;28;20514;-69
2021/12/31 07:17:17;;;;;;;6.50;3.50;;;10.30;99.90;;;;;;4984325;28;20834;-69
2021/12/31 07:19:43;;;;;;;9.80;4.27;;;10.30;99.90;;;;;;4989416;28;20452;-69
2021/12/31 07:22:10;;;;;;;7.37;3.83;;;10.30;99.90;;;;;;4989161;28;20898;-69
2021/12/31 07:24:37;;;;;;;10.93;4.00;;;10.30;99.90;;;;;;4987537;28;20545;-69
2021/12/31 07:27:04;;;;;;;6.07;3.73;;;10.30;99.90;;;;;;4989067;28;20458;-69
2021/12/31 07:29:32;;;;;;;7.03;4.47;;;10.30;99.90;;;;;;4986935;28;21040;-69
2021/12/31 07:31:59;;;;;;;11.37;6.47;;;10.30;99.90;;;;;;4978009;28;20483;-69
2021/12/31 07:34:26;;;;;;;6.10;3.73;;;10.20;99.90;;;;;;4976690;28;20470;-69
2021/12/31 07:36:53;;;;;;;12.67;5.00;;;10.20;99.90;;;;;;4988988;28;20460;-69
2021/12/31 07:39:23;;;;;;;7.67;3.90;;;10.20;99.90;;;;;;4989139;28;20443;-69
2021/12/31 07:41:50;;;;;;;30.00;16.70;;;10.10;99.90;;;;;;4989136;28;20562;-69
2021/12/31 07:44:16;;;;;;;43.27;21.43;;;10.20;99.90;;;;;;4986572;28;20537;-69
2021/12/31 07:46:46;;;;;;;44.37;22.80;;;10.20;99.90;;;;;;4990761;28;20947;-66
2021/12/31 07:49:13;;;;;;;21.73;12.60;;;10.20;99.90;;;;;;4989037;28;20961;-67
2021/12/31 07:51:39;;;;;;;22.77;10.40;;;10.20;99.90;;;;;;4988325;28;20897;-66
2021/12/31 07:54:06;;;;;;;13.77;6.60;;;10.20;99.90;;;;;;4990571;28;20951;-67
2021/12/31 07:56:33;;;;;;;18.70;12.00;;;10.20;99.90;;;;;;4983812;28;20490;-67
2021/12/31 07:58:59;;;;;;;15.87;10.20;;;10.20;99.90;;;;;;4972933;28;20529;-65
2021/12/31 08:01:26;;;;;;;12.80;8.17;;;10.20;99.90;;;;;;4974972;28;20475;-67
2021/12/31 08:03:54;;;;;;;11.43;8.03;;;10.20;99.90;;;;;;4980654;28;20822;-67
2021/12/31 08:06:20;;;;;;;11.23;6.90;;;10.30;99.90;;;;;;4983497;28;20538;-67
2021/12/31 08:08:47;;;;;;;6.90;6.27;;;10.30;99.90;;;;;;4972885;28;20507;-67
2021/12/31 08:11:14;;;;;;;6.23;4.67;;;10.40;99.90;;;;;;4971774;28;20478;-67
2021/12/31 08:13:40;;;;;;;3.47;3.17;;;10.40;99.90;;;;;;4975191;28;20460;-69
2021/12/31 08:16:07;;;;;;;6.20;3.37;;;10.50;99.90;;;;;;4973147;28;20522;-70
2021/12/31 08:18:34;;;;;;;3.83;2.70;;;10.50;99.90;;;;;;4972448;28;20872;-69
2021/12/31 08:21:02;;;;;;;6.10;2.87;;;10.60;99.90;;;;;;4971182;28;20448;-70
2021/12/31 08:23:28;;;;;;;5.53;2.80;;;10.60;99.90;;;;;;4982597;28;20483;-69
2021/12/31 08:25:55;;;;;;;5.40;2.73;;;10.70;99.90;;;;;;4981758;28;20547;-69
2021/12/31 08:28:21;;;;;;;4.17;2.60;;;10.70;99.90;;;;;;4976784;28;20451;-68
2021/12/31 08:30:48;;;;;;;3.40;2.87;;;10.90;99.90;;;;;;4976761;28;21008;-70
2021/12/31 08:33:15;;;;;;;4.03;2.87;;;11.50;99.90;;;;;;4976797;28;20506;-69
2021/12/31 08:35:41;;;;;;;6.33;2.47;;;12.30;99.90;;;;;;4990618;28;20513;-70
2021/12/31 08:38:09;;;;;;;6.00;2.80;;;12.80;99.90;;;;;;4988855;28;20513;-70
2021/12/31 08:40:36;;;;;;;2.77;2.57;;;13.10;99.90;;;;;;4975293;28;20464;-70
2021/12/31 08:43:03;;;;;;;5.07;2.80;;;13.30;99.90;;;;;;4976672;28;20963;-69
2021/12/31 08:45:30;;;;;;;4.40;2.77;;;13.30;99.90;;;;;;4975549;28;20484;-71
2021/12/31 08:47:58;;;;;;;10.73;3.00;;;13.30;99.90;;;;;;4988192;28;20524;-69
2021/12/31 08:50:25;;;;;;;6.53;3.10;;;13.20;99.90;;;;;;4990817;28;20853;-70
2021/12/31 08:52:52;;;;;;;2.80;2.53;;;13.10;99.90;;;;;;4993168;28;20518;-70
2021/12/31 08:55:20;;;;;;;16.30;5.70;;;13.00;99.90;;;;;;4985983;28;20452;-69
2021/12/31 08:57:47;;;;;;;244.00;98.07;;;13.10;99.90;;;;;;4990314;28;20880;-70
2021/12/31 09:00:14;;;;;;;9.70;5.90;;;13.10;99.90;;;;;;4982561;28;20490;-70
2021/12/31 09:02:42;;;;;;;4.40;2.87;;;13.20;99.90;;;;;;4982881;28;20847;-70
2021/12/31 09:05:10;;;;;;;5.30;2.67;;;13.30;99.90;;;;;;4987659;28;20514;-71
2021/12/31 09:07:37;;;;;;;4.77;2.67;;;13.40;99.90;;;;;;4992111;28;20455;-70
2021/12/31 09:10:05;;;;;;;2.57;2.37;;;13.40;99.90;;;;;;4989290;28;20902;-70
2021/12/31 09:12:33;;;;;;;2.67;2.47;;;13.50;99.90;;;;;;4975005;28;20487;-69
2021/12/31 09:14:59;;;;;;;4.40;2.40;;;13.40;99.90;;;;;;4974996;28;21174;-67
2021/12/31 09:17:26;;;;;;;3.43;2.57;;;13.40;99.90;;;;;;4973047;28;20952;-67
2021/12/31 09:19:53;;;;;;;7.47;2.67;;;13.40;99.90;;;;;;4974256;28;20970;-68
2021/12/31 09:22:20;;;;;;;7.70;3.20;;;13.50;99.90;;;;;;4974373;28;20450;-67
2021/12/31 09:24:48;;;;;;;3.70;3.20;;;13.40;99.90;;;;;;4975111;28;20824;-67
2021/12/31 09:27:14;;;;;;;4.57;2.83;;;13.30;99.90;;;;;;4979712;28;20459;-67
2021/12/31 09:29:42;;;;;;;3.80;3.43;;;13.20;99.90;;;;;;4988858;28;20529;-67
2021/12/31 09:32:09;;;;;;;3.50;2.90;;;13.10;99.90;;;;;;4990547;28;21057;-67
2021/12/31 09:34:36;;;;;;;4.17;2.83;;;13.20;99.90;;;;;;4992459;28;20426;-67
2021/12/31 09:37:03;;;;;;;5.73;2.60;;;13.30;99.90;;;;;;4990019;28;20455;-67
2021/12/31 09:39:30;;;;;;;4.50;2.40;;;13.60;99.90;;;;;;4991317;28;20466;-68
2021/12/31 09:41:56;;;;;;;3.03;2.73;;;13.90;99.90;;;;;;4988769;28;20471;-67
2021/12/31 09:44:23;;;;;;;8.67;5.97;;;14.20;99.90;;;;;;4988655;28;20529;-67
2021/12/31 09:46:51;;;;;;;6.87;3.10;;;14.60;99.90;;;;;;4987196;28;20532;-67
2021/12/31 09:49:18;;;;;;;3.20;2.70;;;14.90;99.90;;;;;;4989849;28;20455;-68
2021/12/31 09:51:45;;;;;;;3.73;2.50;;;15.30;99.90;;;;;;4990459;28;20453;-67
2021/12/31 09:54:12;;;;;;;3.13;2.73;;;15.50;99.90;;;;;;4991239;28;20480;-66
2021/12/31 09:56:40;;;;;;;4.70;3.43;;;15.60;99.90;;;;;;4984127;28;21000;-67
2021/12/31 09:59:08;;;;;;;5.87;2.70;;;15.70;99.90;;;;;;4991864;28;20530;-68
2021/12/31 10:01:44;;;;;;;4.53;2.30;;;16.10;99.90;;;;;;4988147;28;20532;-67
2021/12/31 10:04:12;;;;;;;4.60;2.63;;;16.00;99.90;;;;;;4986255;28;21193;-68
2021/12/31 10:06:38;;;;;;;10.13;3.73;;;15.70;99.90;;;;;;4991028;28;20577;-68
2021/12/31 10:09:05;;;;;;;10.60;2.90;;;15.60;99.90;;;;;;4987240;28;20928;-69
2021/12/31 10:11:32;;;;;;;3.93;2.53;;;15.80;99.90;;;;;;4977508;28;21048;-68
2021/12/31 10:14:00;;;;;;;7.93;3.10;;;15.80;99.90;;;;;;4975090;28;20456;-68
2021/12/31 10:16:29;;;;;;;3.03;2.77;;;15.90;99.90;;;;;;4972068;28;20915;-67
2021/12/31 10:19:07;;;;;;;7.83;2.77;;;16.10;99.90;;;;;;4974760;28;20449;-67
2021/12/31 10:21:41;;;;;;;8.17;3.17;;;16.10;99.90;;;;;;4973346;28;20989;-70
2021/12/31 10:24:26;;;;;;;3.20;2.53;;;16.00;99.90;;;;;;4988021;28;20500;-68
2021/12/31 10:26:54;;;;;;;5.33;2.97;;;16.00;99.90;;;;;;4989347;28;20461;-67
2021/12/31 10:29:21;;;;;;;7.90;4.33;;;15.90;99.90;;;;;;4988626;28;20943;-68
2021/12/31 10:31:51;;;;;;;5.60;3.50;;;15.70;99.90;;;;;;4989740;28;20475;-68
2021/12/31 10:34:30;;;;;;;5.37;3.70;;;15.70;99.90;;;;;;4987987;28;20426;-67
2021/12/31 10:36:59;;;;;;;4.23;3.47;;;15.60;99.90;;;;;;4990355;28;20504;-67
2021/12/31 10:39:28;;;;;;;4.13;3.60;;;15.70;99.90;;;;;;4973523;28;20427;-67
2021/12/31 10:42:04;;;;;;;6.13;4.30;;;15.60;99.90;;;;;;4973227;28;20529;-67
2021/12/31 10:44:42;;;;;;;6.37;4.33;;;15.40;99.90;;;;;;4973870;28;20459;-68
2021/12/31 10:47:11;;;;;;;4.27;3.30;;;15.40;99.90;;;;;;4971776;28;20512;-67
2021/12/31 10:50:15;;;;;;;3.60;3.30;;;15.60;99.90;;;;;;4973380;28;20491;-67
2021/12/31 10:52:53;;;;;;;6.37;3.60;;;15.80;99.90;;;;;;4987694;28;20453;-72
2021/12/31 10:55:24;;;;;;;3.33;2.63;;;16.00;99.90;;;;;;4986399;28;20448;-68
2021/12/31 10:57:53;;;;;;;3.90;1.80;;;16.00;99.90;;;;;;4986627;28;20434;-70
2021/12/31 11:00:22;;;;;;;2.10;1.90;;;15.70;99.90;;;;;;4974174;28;20507;-69
2021/12/31 11:02:49;;;;;;;2.37;2.20;;;15.80;99.90;;;;;;4974457;28;20517;-69
2021/12/31 11:05:19;;;;;;;1.87;1.77;;;15.80;99.90;;;;;;4989592;28;20940;-69
2021/12/31 11:07:47;;;;;;;2.07;1.97;;;15.90;99.90;;;;;;4988914;28;20496;-69
2021/12/31 11:10:15;;;;;;;3.30;1.60;;;15.90;99.90;;;;;;4983569;28;20452;-69
2021/12/31 11:12:46;;;;;;;2.97;1.80;;;15.90;99.90;;;;;;4973465;28;20488;-69
2021/12/31 11:15:15;;;;;;;2.13;1.93;;;15.90;99.90;;;;;;4987973;28;20546;-69
2021/12/31 11:17:42;;;;;;;2.40;1.80;;;15.90;99.90;;;;;;4987094;28;20814;-69
2021/12/31 11:20:11;;;;;;;2.20;1.87;;;15.90;99.90;;;;;;4975227;28;20422;-69
2021/12/31 11:22:38;;;;;;;2.20;2.00;;;15.90;99.90;;;;;;4976332;28;20486;-70
2021/12/31 11:25:24;;;;;;;1.93;1.83;;;15.90;99.90;;;;;;4990775;28;20426;-67
2021/12/31 11:27:52;;;;;;;3.70;2.10;;;15.70;99.90;;;;;;4976554;28;20426;-67
2021/12/31 11:30:37;;;;;;;2.00;1.73;;;15.60;99.90;;;;;;4973272;28;20426;-68
2021/12/31 11:33:08;;;;;;;2.20;2.00;;;15.70;99.90;;;;;;4972596;28;20984;-69
2021/12/31 11:35:40;;;;;;;1.83;1.73;;;15.90;99.90;;;;;;4973142;28;20443;-68
2021/12/31 11:38:10;;;;;;;5.60;1.73;;;16.00;99.90;;;;;;4979932;28;20418;-69
2021/12/31 11:40:40;;;;;;;4.53;1.70;;;16.10;99.90;;;;;;4993187;28;20426;-71
2021/12/31 11:43:23;;;;;;;2.20;2.00;;;16.10;99.90;;;;;;4992848;28;20852;-71
2021/12/31 11:46:42;;;;;;;3.10;1.77;;;15.90;99.90;;;;;;4983403;28;20489;-69
2021/12/31 11:49:19;;;;;;;1.93;1.80;;;15.50;99.90;;;;;;4983136;28;20486;-69
2021/12/31 11:52:00;;;;;;;5.87;2.00;;;15.30;99.90;;;;;;4972121;28;20599;-69
2021/12/31 11:54:28;;;;;;;2.60;1.80;;;15.30;99.90;;;;;;4972916;28;20456;-69
2021/12/31 11:57:05;;;;;;;6.07;1.87;;;15.20;99.90;;;;;;4984576;28;20505;-69
2021/12/31 11:59:35;;;;;;;4.13;1.80;;;15.30;99.90;;;;;;4975584;28;20455;-69
2021/12/31 12:02:22;;;;;;;2.03;1.67;;;15.40;99.90;;;;;;4980735;28;20476;-69
2021/12/31 12:05:16;;;;;;;2.37;2.17;;;15.70;99.90;;;;;;4976165;28;20800;-69
2021/12/31 12:07:46;;;;;;;2.10;2.00;;;16.00;99.90;;;;;;4941899;28;20462;-69
2021/12/31 12:10:19;;;;;;;2.23;2.13;;;16.00;99.90;;;;;;4980594;28;20469;-69
2021/12/31 12:12:53;;;;;;;3.60;1.90;;;15.90;99.90;;;;;;5031032;22;21060;-75
2021/12/31 12:15:33;;;;;;;5.60;2.40;;;15.80;99.90;;;;;;5014336;28;20459;-75
2021/12/31 12:18:05;;;;;;;3.80;2.47;;;15.60;99.90;;;;;;5028083;28;20449;-74
2021/12/31 12:20:41;;;;;;;5.67;2.20;;;15.30;99.90;;;;;;5018779;28;20426;-75
2021/12/31 12:23:12;;;;;;;2.10;1.90;;;15.20;99.90;;;;;;4993466;28;20448;-75
2021/12/31 12:25:40;;;;;;;3.30;2.33;;;15.10;99.90;;;;;;5011381;28;20421;-74
2021/12/31 12:28:10;;;;;;;2.70;2.17;;;15.00;99.90;;;;;;5010444;28;20523;-75
2021/12/31 12:30:43;;;;;;;3.63;2.30;;;14.90;99.90;;;;;;5010738;28;20471;-74
2021/12/31 12:33:16;;;;;;;3.00;2.50;;;14.80;99.90;;;;;;4988617;28;20590;-76
2021/12/31 12:35:45;;;;;;;2.37;2.20;;;14.70;99.90;;;;;;4992847;28;20904;-76
2021/12/31 12:38:16;;;;;;;3.70;2.87;;;14.60;99.90;;;;;;4999546;28;20482;-75
2021/12/31 12:40:45;;;;;;;4.93;2.80;;;14.50;99.90;;;;;;4997251;28;20465;-75
2021/12/31 12:43:15;;;;;;;2.87;2.57;;;14.40;99.90;;;;;;4987773;28;20446;-74
2021/12/31 12:45:43;;;;;;;7.63;3.60;;;14.20;99.90;;;;;;4993773;28;20447;-74
2021/12/31 12:48:10;;;;;;;9.83;4.10;;;13.90;99.90;;;;;;4995550;28;20482;-74
2021/12/31 12:50:37;;;;;;;9.13;4.07;;;13.70;99.90;;;;;;4994094;28;20817;-74
2021/12/31 12:53:06;;;;;;;9.80;5.60;;;13.40;99.90;;;;;;4992327;28;20541;-75
2021/12/31 12:55:33;;;;;;;7.90;5.10;;;13.20;99.90;;;;;;5002075;28;21026;-75
2021/12/31 12:58:01;;;;;;;6.90;4.43;;;13.10;99.90;;;;;;4995705;28;20457;-75